LIBG

Taranto-Grottaglie "Marcello Arlotta" Airport

Grottaglie, Italy
TAF LIBG 201400Z 2015/2024 35013KT CAVOK BECMG 2018/2020 VRB04KT
Issued Valid From Valid To
Jul-20 @ 14:00 UTC
(48 minutes ago)
Jul-20 @ 15:00 UTC
(in 12 minutes)
Jul-21 @ 00:00 UTC
(in 9 hours)
Jul-20 @ 15:00 to Jul-20 @ 18:00
TAF LIBG 201400Z 2015/2024 35013KT CAVOK
Wind Visibility Clouds Conditions
350° at 13 knots 10,000+ meters
  • No significant clouds
Becoming Jul-20 @ 18:00 to Jul-21 @ 00:00
BECMG 2018/2020 VRB04KT
Wind Visibility Clouds Conditions
Variable at 4 knots 10,000+ meters
  • No significant clouds
TAF LIBG 201400Z 2015/2024 35013KT CAVOK BECMG 2018/2020 VRB04KT
Issued Jul-20 @ 14:00 UTC
(48 minutes ago)
Valid From Jul-20 @ 15:00 UTC
(in 12 minutes)
Valid To Jul-21 @ 00:00 UTC
(in 9 hours)
Jul-20 @ 15:00 - Jul-20 @ 18:00
Wind Visibility
350° at 13 knots 10,000+ meters
Clouds
  • No significant clouds
Conditions
Becoming Jul-20 @ 18:00 - Jul-21 @ 00:00
Wind Visibility
Variable at 4 knots 10,000+ meters
Clouds
  • No significant clouds
Conditions